sensor_id;sensor_type;location;lat;lon;timestamp;P1;durP1;ratioP1;P2;durP2;ratioP2
13319;SDS011;59599;47.608;12.190;2023-08-17T04:00:35;6.82;;;5.97;;
13319;SDS011;59599;47.608;12.190;2023-08-17T04:03:01;6.60;;;5.90;;
13319;SDS011;59599;47.608;12.190;2023-08-17T04:05:27;7.70;;;5.80;;
13319;SDS011;59599;47.608;12.190;2023-08-17T04:07:52;8.80;;;5.97;;
13319;SDS011;59599;47.608;12.190;2023-08-17T04:10:18;9.32;;;6.15;;
13319;SDS011;59599;47.608;12.190;2023-08-17T04:12:44;6.50;;;5.90;;
13319;SDS011;59599;47.608;12.190;2023-08-17T04:15:11;6.72;;;5.93;;
13319;SDS011;59599;47.608;12.190;2023-08-17T04:17:36;6.47;;;5.97;;
13319;SDS011;59599;47.608;12.190;2023-08-17T04:20:02;6.30;;;5.80;;
13319;SDS011;59599;47.608;12.190;2023-08-17T04:22:29;6.97;;;5.40;;
13319;SDS011;59599;47.608;12.190;2023-08-17T04:24:55;6.60;;;6.00;;
13319;SDS011;59599;47.608;12.190;2023-08-17T04:27:21;7.05;;;5.90;;
13319;SDS011;59599;47.608;12.190;2023-08-17T04:29:46;9.95;;;6.40;;
13319;SDS011;59599;47.608;12.190;2023-08-17T04:32:15;11.50;;;6.00;;
13319;SDS011;59599;47.608;12.190;2023-08-17T04:34:42;6.75;;;6.10;;
13319;SDS011;59599;47.608;12.190;2023-08-17T04:37:08;6.57;;;5.90;;
13319;SDS011;59599;47.608;12.190;2023-08-17T04:39:33;8.75;;;6.28;;
13319;SDS011;59599;47.608;12.190;2023-08-17T04:41:59;7.97;;;5.65;;
13319;SDS011;59599;47.608;12.190;2023-08-17T04:44:25;10.13;;;5.75;;
13319;SDS011;59599;47.608;12.190;2023-08-17T04:46:51;6.72;;;6.05;;
13319;SDS011;59599;47.608;12.190;2023-08-17T04:49:17;7.07;;;6.07;;
13319;SDS011;59599;47.608;12.190;2023-08-17T04:51:43;13.52;;;6.10;;
13319;SDS011;59599;47.608;12.190;2023-08-17T04:54:09;10.60;;;5.93;;
13319;SDS011;59599;47.608;12.190;2023-08-17T04:56:35;6.07;;;5.47;;
13319;SDS011;59599;47.608;12.190;2023-08-17T04:59:01;8.48;;;6.10;;
13319;SDS011;59599;47.608;12.190;2023-08-17T05:01:27;9.88;;;5.95;;
13319;SDS011;59599;47.608;12.190;2023-08-17T05:03:53;6.53;;;5.93;;
13319;SDS011;59599;47.608;12.190;2023-08-17T05:06:19;5.93;;;5.30;;
13319;SDS011;59599;47.608;12.190;2023-08-17T05:08:45;7.07;;;5.70;;
13319;SDS011;59599;47.608;12.190;2023-08-17T05:11:11;6.13;;;5.53;;
13319;SDS011;59599;47.608;12.190;2023-08-17T05:13:37;5.70;;;5.20;;
13319;SDS011;59599;47.608;12.190;2023-08-17T05:16:04;7.03;;;5.55;;
13319;SDS011;59599;47.608;12.190;2023-08-17T05:18:30;8.88;;;5.63;;
13319;SDS011;59599;47.608;12.190;2023-08-17T05:20:56;7.57;;;5.63;;
13319;SDS011;59599;47.608;12.190;2023-08-17T05:23:22;10.13;;;5.68;;
13319;SDS011;59599;47.608;12.190;2023-08-17T05:25:48;8.90;;;5.78;;
13319;SDS011;59599;47.608;12.190;2023-08-17T05:28:14;6.10;;;5.28;;
13319;SDS011;59599;47.608;12.190;2023-08-17T05:30:40;7.13;;;5.47;;
13319;SDS011;59599;47.608;12.190;2023-08-17T05:33:06;6.88;;;5.20;;
13319;SDS011;59599;47.608;12.190;2023-08-17T05:35:32;6.30;;;5.70;;
13319;SDS011;59599;47.608;12.190;2023-08-17T05:37:58;5.53;;;5.03;;
13319;SDS011;59599;47.608;12.190;2023-08-17T05:40:24;5.90;;;5.30;;
13319;SDS011;59599;47.608;12.190;2023-08-17T05:42:49;8.32;;;5.45;;
13319;SDS011;59599;47.608;12.190;2023-08-17T05:45:15;7.95;;;5.30;;
13319;SDS011;59599;47.608;12.190;2023-08-17T05:47:41;6.00;;;5.10;;
13319;SDS011;59599;47.608;12.190;2023-08-17T05:50:07;5.95;;;5.30;;
13319;SDS011;59599;47.608;12.190;2023-08-17T05:52:32;6.85;;;5.70;;
13319;SDS011;59599;47.608;12.190;2023-08-17T05:54:58;6.30;;;4.93;;
13319;SDS011;59599;47.608;12.190;2023-08-17T05:57:24;11.75;;;5.78;;
13319;SDS011;59599;47.608;12.190;2023-08-17T05:59:50;5.78;;;5.15;;
13319;SDS011;59599;47.608;12.190;2023-08-17T06:02:16;6.68;;;5.05;;
13319;SDS011;59599;47.608;12.190;2023-08-17T06:04:42;8.48;;;5.40;;
13319;SDS011;59599;47.608;12.190;2023-08-17T06:07:07;6.07;;;5.57;;
13319;SDS011;59599;47.608;12.190;2023-08-17T06:09:33;7.40;;;5.03;;
13319;SDS011;59599;47.608;12.190;2023-08-17T06:11:59;6.93;;;6.20;;
13319;SDS011;59599;47.608;12.190;2023-08-17T06:14:25;8.55;;;5.60;;
13319;SDS011;59599;47.608;12.190;2023-08-17T06:16:51;5.90;;;5.28;;
13319;SDS011;59599;47.608;12.190;2023-08-17T06:19:17;6.78;;;5.40;;
13319;SDS011;59599;47.608;12.190;2023-08-17T06:21:43;9.25;;;4.53;;
13319;SDS011;59599;47.608;12.190;2023-08-17T06:24:09;9.55;;;4.88;;
13319;SDS011;59599;47.608;12.190;2023-08-17T06:26:35;7.07;;;5.05;;
13319;SDS011;59599;47.608;12.190;2023-08-17T06:29:01;5.93;;;4.82;;
13319;SDS011;59599;47.608;12.190;2023-08-17T06:31:27;7.25;;;5.07;;
13319;SDS011;59599;47.608;12.190;2023-08-17T06:33:53;7.47;;;6.05;;
13319;SDS011;59599;47.608;12.190;2023-08-17T06:36:19;7.10;;;5.45;;
13319;SDS011;59599;47.608;12.190;2023-08-17T06:38:45;4.97;;;4.57;;
13319;SDS011;59599;47.608;12.190;2023-08-17T06:41:11;7.35;;;4.82;;
13319;SDS011;59599;47.608;12.190;2023-08-17T06:43:37;5.20;;;4.70;;
13319;SDS011;59599;47.608;12.190;2023-08-17T06:46:03;5.35;;;4.05;;
13319;SDS011;59599;47.608;12.190;2023-08-17T06:48:29;7.50;;;4.60;;
13319;SDS011;59599;47.608;12.190;2023-08-17T06:50:56;5.30;;;4.80;;
13319;SDS011;59599;47.608;12.190;2023-08-17T06:53:22;4.22;;;3.83;;
13319;SDS011;59599;47.608;12.190;2023-08-17T06:55:48;5.50;;;4.88;;
13319;SDS011;59599;47.608;12.190;2023-08-17T06:58:14;5.65;;;4.80;;
13319;SDS011;59599;47.608;12.190;2023-08-17T07:00:40;7.00;;;4.90;;
13319;SDS011;59599;47.608;12.190;2023-08-17T07:03:06;4.88;;;4.35;;
13319;SDS011;59599;47.608;12.190;2023-08-17T07:05:32;8.50;;;4.38;;
13319;SDS011;59599;47.608;12.190;2023-08-17T07:07:59;5.60;;;4.53;;
13319;SDS011;59599;47.608;12.190;2023-08-17T07:10:25;6.75;;;4.20;;
13319;SDS011;59599;47.608;12.190;2023-08-17T07:12:52;6.90;;;3.85;;
13319;SDS011;59599;47.608;12.190;2023-08-17T07:15:18;4.07;;;3.78;;
13319;SDS011;59599;47.608;12.190;2023-08-17T07:17:44;5.35;;;4.25;;
13319;SDS011;59599;47.608;12.190;2023-08-17T07:20:10;7.05;;;4.28;;
13319;SDS011;59599;47.608;12.190;2023-08-17T07:22:39;4.57;;;3.05;;
13319;SDS011;59599;47.608;12.190;2023-08-17T07:25:05;4.20;;;3.60;;
13319;SDS011;59599;47.608;12.190;2023-08-17T07:27:33;3.72;;;3.42;;
13319;SDS011;59599;47.608;12.190;2023-08-17T07:29:59;6.13;;;3.63;;
13319;SDS011;59599;47.608;12.190;2023-08-17T07:32:25;4.50;;;3.95;;
13319;SDS011;59599;47.608;12.190;2023-08-17T07:34:51;4.68;;;3.70;;
13319;SDS011;59599;47.608;12.190;2023-08-17T07:37:18;6.63;;;3.90;;
13319;SDS011;59599;47.608;12.190;2023-08-17T07:39:43;5.53;;;3.20;;
13319;SDS011;59599;47.608;12.190;2023-08-17T07:42:09;4.00;;;2.55;;
13319;SDS011;59599;47.608;12.190;2023-08-17T07:44:35;4.18;;;2.90;;
13319;SDS011;59599;47.608;12.190;2023-08-17T07:47:00;3.15;;;2.85;;
13319;SDS011;59599;47.608;12.190;2023-08-17T07:49:28;5.65;;;3.15;;
13319;SDS011;59599;47.608;12.190;2023-08-17T07:51:53;5.10;;;2.90;;
13319;SDS011;59599;47.608;12.190;2023-08-17T07:54:19;4.25;;;2.53;;
13319;SDS011;59599;47.608;12.190;2023-08-17T07:56:45;4.63;;;2.65;;
13319;SDS011;59599;47.608;12.190;2023-08-17T07:59:11;2.72;;;2.45;;
13319;SDS011;59599;47.608;12.190;2023-08-17T08:01:37;8.82;;;3.20;;
13319;SDS011;59599;47.608;12.190;2023-08-17T08:04:04;6.90;;;3.03;;
13319;SDS011;59599;47.608;12.190;2023-08-17T08:06:30;5.53;;;3.00;;
13319;SDS011;59599;47.608;12.190;2023-08-17T08:08:56;5.38;;;2.40;;
13319;SDS011;59599;47.608;12.190;2023-08-17T08:11:22;6.15;;;2.80;;
13319;SDS011;59599;47.608;12.190;2023-08-17T08:13:47;4.32;;;2.95;;
13319;SDS011;59599;47.608;12.190;2023-08-17T08:16:13;4.20;;;3.03;;
13319;SDS011;59599;47.608;12.190;2023-08-17T08:18:39;6.35;;;3.13;;
13319;SDS011;59599;47.608;12.190;2023-08-17T08:21:05;6.30;;;2.50;;
13319;SDS011;59599;47.608;12.190;2023-08-17T08:23:31;3.10;;;2.40;;
13319;SDS011;59599;47.608;12.190;2023-08-17T08:25:57;4.47;;;2.70;;
13319;SDS011;59599;47.608;12.190;2023-08-17T08:28:23;3.55;;;2.90;;
13319;SDS011;59599;47.608;12.190;2023-08-17T08:30:50;5.70;;;2.78;;
13319;SDS011;59599;47.608;12.190;2023-08-17T08:33:16;6.05;;;3.00;;
13319;SDS011;59599;47.608;12.190;2023-08-17T08:35:41;6.63;;;2.80;;
13319;SDS011;59599;47.608;12.190;2023-08-17T08:38:07;3.75;;;2.60;;
13319;SDS011;59599;47.608;12.190;2023-08-17T08:40:33;2.97;;;2.55;;
13319;SDS011;59599;47.608;12.190;2023-08-17T08:43:02;5.72;;;2.70;;
13319;SDS011;59599;47.608;12.190;2023-08-17T08:45:28;3.13;;;2.40;;
13319;SDS011;59599;47.608;12.190;2023-08-17T08:47:55;3.67;;;2.67;;
13319;SDS011;59599;47.608;12.190;2023-08-17T08:50:22;3.13;;;2.83;;
13319;SDS011;59599;47.608;12.190;2023-08-17T08:52:58;4.90;;;2.90;;
13319;SDS011;59599;47.608;12.190;2023-08-17T08:55:26;2.67;;;2.45;;
13319;SDS011;59599;47.608;12.190;2023-08-17T08:57:54;4.63;;;2.38;;
13319;SDS011;59599;47.608;12.190;2023-08-17T09:00:21;3.45;;;2.47;;
13319;SDS011;59599;47.608;12.190;2023-08-17T09:02:47;3.53;;;2.63;;
13319;SDS011;59599;47.608;12.190;2023-08-17T09:05:14;2.95;;;2.55;;
13319;SDS011;59599;47.608;12.190;2023-08-17T09:07:40;3.95;;;2.70;;
13319;SDS011;59599;47.608;12.190;2023-08-17T09:10:08;6.70;;;2.45;;
13319;SDS011;59599;47.608;12.190;2023-08-17T09:12:35;3.67;;;2.78;;
13319;SDS011;59599;47.608;12.190;2023-08-17T09:15:00;5.82;;;2.90;;
13319;SDS011;59599;47.608;12.190;2023-08-17T09:17:26;5.07;;;2.83;;
13319;SDS011;59599;47.608;12.190;2023-08-17T09:19:53;3.90;;;2.65;;
13319;SDS011;59599;47.608;12.190;2023-08-17T09:22:26;3.85;;;2.50;;
13319;SDS011;59599;47.608;12.190;2023-08-17T09:25:04;3.25;;;2.60;;
13319;SDS011;59599;47.608;12.190;2023-08-17T09:27:31;4.38;;;3.17;;
13319;SDS011;59599;47.608;12.190;2023-08-17T09:30:08;2.60;;;2.40;;
13319;SDS011;59599;47.608;12.190;2023-08-17T09:32:35;4.95;;;3.03;;
13319;SDS011;59599;47.608;12.190;2023-08-17T09:35:02;5.82;;;2.60;;
13319;SDS011;59599;47.608;12.190;2023-08-17T09:37:29;6.32;;;3.05;;
13319;SDS011;59599;47.608;12.190;2023-08-17T09:39:55;5.60;;;2.70;;
13319;SDS011;59599;47.608;12.190;2023-08-17T09:42:21;2.88;;;2.58;;
13319;SDS011;59599;47.608;12.190;2023-08-17T09:44:48;3.13;;;2.50;;
13319;SDS011;59599;47.608;12.190;2023-08-17T09:47:15;5.80;;;2.67;;
13319;SDS011;59599;47.608;12.190;2023-08-17T09:49:42;4.95;;;2.80;;
13319;SDS011;59599;47.608;12.190;2023-08-17T09:52:15;5.00;;;2.70;;
13319;SDS011;59599;47.608;12.190;2023-08-17T09:54:41;3.47;;;2.72;;
13319;SDS011;59599;47.608;12.190;2023-08-17T09:57:07;2.92;;;2.60;;
13319;SDS011;59599;47.608;12.190;2023-08-17T09:59:34;3.08;;;2.45;;
13319;SDS011;59599;47.608;12.190;2023-08-17T10:01:59;2.85;;;2.38;;
13319;SDS011;59599;47.608;12.190;2023-08-17T10:04:26;3.50;;;2.58;;
13319;SDS011;59599;47.608;12.190;2023-08-17T10:06:57;3.80;;;2.22;;
13319;SDS011;59599;47.608;12.190;2023-08-17T10:09:31;3.22;;;2.55;;
13319;SDS011;59599;47.608;12.190;2023-08-17T10:12:02;4.35;;;2.70;;
13319;SDS011;59599;47.608;12.190;2023-08-17T10:14:34;5.28;;;2.42;;
13319;SDS011;59599;47.608;12.190;2023-08-17T10:17:09;4.20;;;2.40;;
13319;SDS011;59599;47.608;12.190;2023-08-17T10:22:15;4.90;;;2.67;;
13319;SDS011;59599;47.608;12.190;2023-08-17T10:24:44;2.85;;;2.50;;
13319;SDS011;59599;47.608;12.190;2023-08-17T10:27:11;4.40;;;2.80;;
13319;SDS011;59599;47.608;12.190;2023-08-17T10:29:38;4.75;;;2.67;;
13319;SDS011;59599;47.608;12.190;2023-08-17T10:32:05;5.25;;;2.60;;
13319;SDS011;59599;47.608;12.190;2023-08-17T10:34:32;2.70;;;2.25;;
13319;SDS011;59599;47.608;12.190;2023-08-17T10:36:59;4.25;;;2.50;;
13319;SDS011;59599;47.608;12.190;2023-08-17T10:39:26;3.03;;;2.65;;
13319;SDS011;59599;47.608;12.190;2023-08-17T10:41:53;7.70;;;2.60;;
13319;SDS011;59599;47.608;12.190;2023-08-17T10:47:31;5.93;;;2.40;;
13319;SDS011;59599;47.608;12.190;2023-08-17T10:50:21;2.90;;;2.35;;
13319;SDS011;59599;47.608;12.190;2023-08-17T10:52:47;4.13;;;2.30;;
13319;SDS011;59599;47.608;12.190;2023-08-17T10:55:13;4.60;;;2.58;;
13319;SDS011;59599;47.608;12.190;2023-08-17T10:57:43;3.03;;;2.67;;
13319;SDS011;59599;47.608;12.190;2023-08-17T11:02:58;2.95;;;2.10;;
13319;SDS011;59599;47.608;12.190;2023-08-17T11:05:34;3.17;;;2.67;;
13319;SDS011;59599;47.608;12.190;2023-08-17T11:08:07;2.75;;;2.10;;
13319;SDS011;59599;47.608;12.190;2023-08-17T11:10:38;3.55;;;2.40;;
13319;SDS011;59599;47.608;12.190;2023-08-17T11:13:05;2.33;;;2.13;;
13319;SDS011;59599;47.608;12.190;2023-08-17T11:15:36;2.92;;;2.50;;
13319;SDS011;59599;47.608;12.190;2023-08-17T11:18:10;3.58;;;2.45;;
13319;SDS011;59599;47.608;12.190;2023-08-17T11:20:37;2.60;;;2.20;;
13319;SDS011;59599;47.608;12.190;2023-08-17T11:23:05;4.75;;;2.08;;
13319;SDS011;59599;47.608;12.190;2023-08-17T11:25:32;2.40;;;2.20;;
13319;SDS011;59599;47.608;12.190;2023-08-17T11:27:59;3.15;;;2.10;;
13319;SDS011;59599;47.608;12.190;2023-08-17T11:30:26;5.88;;;2.85;;
13319;SDS011;59599;47.608;12.190;2023-08-17T11:32:53;3.00;;;2.80;;
13319;SDS011;59599;47.608;12.190;2023-08-17T11:35:19;3.22;;;2.50;;
13319;SDS011;59599;47.608;12.190;2023-08-17T11:37:46;3.55;;;2.60;;
13319;SDS011;59599;47.608;12.190;2023-08-17T11:40:13;3.83;;;2.60;;
13319;SDS011;59599;47.608;12.190;2023-08-17T11:42:39;3.28;;;2.67;;
13319;SDS011;59599;47.608;12.190;2023-08-17T11:45:05;4.25;;;2.50;;
13319;SDS011;59599;47.608;12.190;2023-08-17T11:47:34;6.80;;;3.15;;
13319;SDS011;59599;47.608;12.190;2023-08-17T11:50:03;2.95;;;2.65;;
13319;SDS011;59599;47.608;12.190;2023-08-17T11:52:30;4.63;;;2.90;;
13319;SDS011;59599;47.608;12.190;2023-08-17T11:54:57;3.28;;;2.97;;
13319;SDS011;59599;47.608;12.190;2023-08-17T11:57:23;4.18;;;3.10;;
13319;SDS011;59599;47.608;12.190;2023-08-17T11:59:53;5.15;;;3.53;;
13319;SDS011;59599;47.608;12.190;2023-08-17T12:02:20;5.50;;;3.33;;
13319;SDS011;59599;47.608;12.190;2023-08-17T12:04:47;5.55;;;4.57;;
13319;SDS011;59599;47.608;12.190;2023-08-17T12:07:13;5.97;;;4.35;;
13319;SDS011;59599;47.608;12.190;2023-08-17T12:09:38;4.10;;;3.70;;
13319;SDS011;59599;47.608;12.190;2023-08-17T12:12:05;6.97;;;3.95;;
13319;SDS011;59599;47.608;12.190;2023-08-17T12:14:30;4.65;;;3.88;;
13319;SDS011;59599;47.608;12.190;2023-08-17T12:16:56;5.47;;;3.80;;
13319;SDS011;59599;47.608;12.190;2023-08-17T12:19:24;4.07;;;3.70;;
13319;SDS011;59599;47.608;12.190;2023-08-17T12:21:50;4.40;;;4.00;;
13319;SDS011;59599;47.608;12.190;2023-08-17T12:24:16;4.00;;;3.42;;
13319;SDS011;59599;47.608;12.190;2023-08-17T12:26:44;4.10;;;3.70;;
13319;SDS011;59599;47.608;12.190;2023-08-17T12:29:11;4.35;;;3.80;;
13319;SDS011;59599;47.608;12.190;2023-08-17T12:31:37;5.03;;;3.42;;
13319;SDS011;59599;47.608;12.190;2023-08-17T12:34:03;4.57;;;3.63;;
13319;SDS011;59599;47.608;12.190;2023-08-17T12:36:31;3.88;;;3.58;;
13319;SDS011;59599;47.608;12.190;2023-08-17T12:39:02;3.45;;;3.15;;
13319;SDS011;59599;47.608;12.190;2023-08-17T12:41:28;4.10;;;3.70;;
13319;SDS011;59599;47.608;12.190;2023-08-17T12:43:54;5.72;;;3.78;;
13319;SDS011;59599;47.608;12.190;2023-08-17T12:46:23;3.80;;;3.50;;
13319;SDS011;59599;47.608;12.190;2023-08-17T12:48:49;4.80;;;3.55;;
13319;SDS011;59599;47.608;12.190;2023-08-17T12:51:14;6.25;;;3.70;;
13319;SDS011;59599;47.608;12.190;2023-08-17T12:53:41;4.13;;;3.33;;
13319;SDS011;59599;47.608;12.190;2023-08-17T12:56:07;4.22;;;3.17;;
13319;SDS011;59599;47.608;12.190;2023-08-17T12:58:32;5.43;;;3.50;;
13319;SDS011;59599;47.608;12.190;2023-08-17T13:00:58;3.35;;;3.05;;
13319;SDS011;59599;47.608;12.190;2023-08-17T13:03:24;7.03;;;3.50;;
13319;SDS011;59599;47.608;12.190;2023-08-17T13:05:50;3.25;;;2.95;;
13319;SDS011;59599;47.608;12.190;2023-08-17T13:08:16;3.92;;;3.13;;
13319;SDS011;59599;47.608;12.190;2023-08-17T13:10:41;4.70;;;3.20;;
13319;SDS011;59599;47.608;12.190;2023-08-17T13:13:07;3.35;;;3.05;;
13319;SDS011;59599;47.608;12.190;2023-08-17T13:15:33;4.20;;;3.20;;
13319;SDS011;59599;47.608;12.190;2023-08-17T13:17:59;3.75;;;3.10;;
13319;SDS011;59599;47.608;12.190;2023-08-17T13:20:26;3.30;;;2.80;;
13319;SDS011;59599;47.608;12.190;2023-08-17T13:22:52;3.95;;;3.05;;
13319;SDS011;59599;47.608;12.190;2023-08-17T13:25:17;4.20;;;3.05;;
13319;SDS011;59599;47.608;12.190;2023-08-17T13:27:43;3.03;;;2.70;;
13319;SDS011;59599;47.608;12.190;2023-08-17T13:30:08;4.13;;;3.28;;
13319;SDS011;59599;47.608;12.190;2023-08-17T13:32:34;6.03;;;3.00;;
13319;SDS011;59599;47.608;12.190;2023-08-17T13:35:03;3.45;;;3.03;;
13319;SDS011;59599;47.608;12.190;2023-08-17T13:37:29;3.65;;;2.80;;
13319;SDS011;59599;47.608;12.190;2023-08-17T13:39:54;4.05;;;3.08;;
13319;SDS011;59599;47.608;12.190;2023-08-17T13:42:20;4.80;;;3.40;;
13319;SDS011;59599;47.608;12.190;2023-08-17T13:44:46;3.85;;;2.97;;
13319;SDS011;59599;47.608;12.190;2023-08-17T13:47:12;3.35;;;3.03;;
13319;SDS011;59599;47.608;12.190;2023-08-17T13:49:38;3.33;;;3.03;;
13319;SDS011;59599;47.608;12.190;2023-08-17T13:52:04;3.30;;;2.95;;
13319;SDS011;59599;47.608;12.190;2023-08-17T13:54:30;4.15;;;2.80;;
13319;SDS011;59599;47.608;12.190;2023-08-17T13:56:55;3.40;;;3.10;;
13319;SDS011;59599;47.608;12.190;2023-08-17T13:59:21;10.90;;;3.83;;
13319;SDS011;59599;47.608;12.190;2023-08-17T14:01:47;4.22;;;2.95;;
13319;SDS011;59599;47.608;12.190;2023-08-17T14:04:13;9.88;;;3.90;;
13319;SDS011;59599;47.608;12.190;2023-08-17T14:06:39;3.13;;;2.88;;
13319;SDS011;59599;47.608;12.190;2023-08-17T14:09:05;8.93;;;3.10;;
13319;SDS011;59599;47.608;12.190;2023-08-17T14:11:31;14.27;;;4.60;;
13319;SDS011;59599;47.608;12.190;2023-08-17T14:13:57;2.83;;;2.63;;
13319;SDS011;59599;47.608;12.190;2023-08-17T14:16:23;15.88;;;6.20;;
13319;SDS011;59599;47.608;12.190;2023-08-17T14:18:49;3.20;;;2.85;;
13319;SDS011;59599;47.608;12.190;2023-08-17T14:21:14;3.90;;;3.00;;
13319;SDS011;59599;47.608;12.190;2023-08-17T14:23:40;3.97;;;3.20;;
13319;SDS011;59599;47.608;12.190;2023-08-17T14:26:06;3.53;;;3.22;;
13319;SDS011;59599;47.608;12.190;2023-08-17T14:28:32;5.45;;;3.20;;
13319;SDS011;59599;47.608;12.190;2023-08-17T14:30:58;4.88;;;3.47;;
13319;SDS011;59599;47.608;12.190;2023-08-17T14:33:24;5.35;;;3.30;;
13319;SDS011;59599;47.608;12.190;2023-08-17T14:35:50;3.90;;;3.55;;
13319;SDS011;59599;47.608;12.190;2023-08-17T14:38:16;4.60;;;3.95;;
13319;SDS011;59599;47.608;12.190;2023-08-17T14:40:45;7.00;;;3.50;;
13319;SDS011;59599;47.608;12.190;2023-08-17T14:43:12;3.72;;;3.42;;
13319;SDS011;59599;47.608;12.190;2023-08-17T14:45:39;3.88;;;3.50;;
13319;SDS011;59599;47.608;12.190;2023-08-17T14:48:05;3.75;;;3.45;;
13319;SDS011;59599;47.608;12.190;2023-08-17T14:50:32;5.28;;;3.60;;
13319;SDS011;59599;47.608;12.190;2023-08-17T14:52:58;3.67;;;3.38;;
13319;SDS011;59599;47.608;12.190;2023-08-17T14:55:26;4.38;;;3.22;;
13319;SDS011;59599;47.608;12.190;2023-08-17T14:57:52;3.65;;;3.28;;
13319;SDS011;59599;47.608;12.190;2023-08-17T15:00:18;6.00;;;3.35;;
13319;SDS011;59599;47.608;12.190;2023-08-17T15:02:44;5.85;;;3.85;;
13319;SDS011;59599;47.608;12.190;2023-08-17T15:05:10;8.23;;;3.75;;
13319;SDS011;59599;47.608;12.190;2023-08-17T15:07:36;3.63;;;3.20;;
13319;SDS011;59599;47.608;12.190;2023-08-17T15:10:02;3.72;;;3.42;;
13319;SDS011;59599;47.608;12.190;2023-08-17T15:12:28;4.03;;;3.45;;
13319;SDS011;59599;47.608;12.190;2023-08-17T15:14:54;3.80;;;3.40;;
13319;SDS011;59599;47.608;12.190;2023-08-17T15:17:19;4.15;;;3.40;;
13319;SDS011;59599;47.608;12.190;2023-08-17T15:19:45;3.60;;;3.30;;
13319;SDS011;59599;47.608;12.190;2023-08-17T15:22:11;4.18;;;3.38;;
13319;SDS011;59599;47.608;12.190;2023-08-17T15:24:37;5.35;;;3.55;;
13319;SDS011;59599;47.608;12.190;2023-08-17T15:27:03;6.35;;;3.60;;
13319;SDS011;59599;47.608;12.190;2023-08-17T15:29:29;4.88;;;3.70;;
13319;SDS011;59599;47.608;12.190;2023-08-17T15:31:55;5.20;;;3.70;;
13319;SDS011;59599;47.608;12.190;2023-08-17T15:34:20;5.45;;;4.90;;
13319;SDS011;59599;47.608;12.190;2023-08-17T15:36:46;3.80;;;3.40;;
13319;SDS011;59599;47.608;12.190;2023-08-17T15:39:12;4.88;;;3.47;;
13319;SDS011;59599;47.608;12.190;2023-08-17T15:41:38;7.35;;;4.63;;
13319;SDS011;59599;47.608;12.190;2023-08-17T15:44:04;6.53;;;4.38;;
13319;SDS011;59599;47.608;12.190;2023-08-17T15:46:29;5.30;;;4.05;;
13319;SDS011;59599;47.608;12.190;2023-08-17T15:48:56;4.53;;;4.13;;
13319;SDS011;59599;47.608;12.190;2023-08-17T15:51:22;4.20;;;3.70;;
13319;SDS011;59599;47.608;12.190;2023-08-17T15:53:48;3.72;;;3.30;;
13319;SDS011;59599;47.608;12.190;2023-08-17T15:56:14;6.95;;;3.90;;
13319;SDS011;59599;47.608;12.190;2023-08-17T15:58:40;4.85;;;3.88;;
13319;SDS011;59599;47.608;12.190;2023-08-17T16:01:06;4.40;;;3.78;;
13319;SDS011;59599;47.608;12.190;2023-08-17T16:03:32;3.90;;;3.58;;
13319;SDS011;59599;47.608;12.190;2023-08-17T16:05:58;3.70;;;3.40;;
13319;SDS011;59599;47.608;12.190;2023-08-17T16:08:24;3.60;;;3.30;;
13319;SDS011;59599;47.608;12.190;2023-08-17T16:10:50;7.57;;;3.90;;
13319;SDS011;59599;47.608;12.190;2023-08-17T16:13:15;7.28;;;3.42;;
13319;SDS011;59599;47.608;12.190;2023-08-17T16:15:41;3.83;;;3.53;;
13319;SDS011;59599;47.608;12.190;2023-08-17T16:18:07;4.35;;;3.63;;
13319;SDS011;59599;47.608;12.190;2023-08-17T16:20:33;3.72;;;3.40;;
13319;SDS011;59599;47.608;12.190;2023-08-17T16:22:59;8.18;;;4.00;;
13319;SDS011;59599;47.608;12.190;2023-08-17T16:25:25;4.28;;;3.90;;
13319;SDS011;59599;47.608;12.190;2023-08-17T16:27:52;5.78;;;4.03;;
13319;SDS011;59599;47.608;12.190;2023-08-17T16:30:17;4.03;;;3.72;;
13319;SDS011;59599;47.608;12.190;2023-08-17T16:32:43;6.13;;;4.50;;
13319;SDS011;59599;47.608;12.190;2023-08-17T16:35:09;5.85;;;3.67;;
13319;SDS011;59599;47.608;12.190;2023-08-17T16:37:35;4.28;;;3.50;;
13319;SDS011;59599;47.608;12.190;2023-08-17T16:40:01;4.60;;;3.75;;
13319;SDS011;59599;47.608;12.190;2023-08-17T16:42:29;4.05;;;3.55;;
13319;SDS011;59599;47.608;12.190;2023-08-17T16:44:55;5.80;;;4.00;;
13319;SDS011;59599;47.608;12.190;2023-08-17T16:47:21;4.72;;;3.65;;
13319;SDS011;59599;47.608;12.190;2023-08-17T16:49:50;4.10;;;3.70;;
13319;SDS011;59599;47.608;12.190;2023-08-17T16:52:19;6.93;;;3.85;;
13319;SDS011;59599;47.608;12.190;2023-08-17T16:54:45;4.50;;;3.50;;
13319;SDS011;59599;47.608;12.190;2023-08-17T16:57:11;5.57;;;4.05;;
13319;SDS011;59599;47.608;12.190;2023-08-17T16:59:38;4.88;;;3.50;;
13319;SDS011;59599;47.608;12.190;2023-08-17T17:02:04;4.45;;;3.90;;
13319;SDS011;59599;47.608;12.190;2023-08-17T17:04:30;11.05;;;4.20;;
13319;SDS011;59599;47.608;12.190;2023-08-17T17:06:56;4.60;;;4.18;;
13319;SDS011;59599;47.608;12.190;2023-08-17T17:09:21;4.13;;;3.70;;
13319;SDS011;59599;47.608;12.190;2023-08-17T17:11:47;4.50;;;4.13;;
13319;SDS011;59599;47.608;12.190;2023-08-17T17:14:13;4.75;;;4.07;;
13319;SDS011;59599;47.608;12.190;2023-08-17T17:16:39;6.85;;;3.95;;
13319;SDS011;59599;47.608;12.190;2023-08-17T17:19:05;3.95;;;3.42;;
13319;SDS011;59599;47.608;12.190;2023-08-17T17:21:31;7.85;;;4.20;;
13319;SDS011;59599;47.608;12.190;2023-08-17T17:23:58;4.50;;;3.95;;
13319;SDS011;59599;47.608;12.190;2023-08-17T17:26:24;8.00;;;3.72;;
13319;SDS011;59599;47.608;12.190;2023-08-17T17:28:50;7.22;;;4.18;;
13319;SDS011;59599;47.608;12.190;2023-08-17T17:31:16;4.07;;;3.67;;
13319;SDS011;59599;47.608;12.190;2023-08-17T17:33:42;7.25;;;4.20;;
13319;SDS011;59599;47.608;12.190;2023-08-17T17:36:07;6.28;;;4.20;;
13319;SDS011;59599;47.608;12.190;2023-08-17T17:38:33;4.53;;;3.95;;
13319;SDS011;59599;47.608;12.190;2023-08-17T17:40:58;5.72;;;4.50;;
13319;SDS011;59599;47.608;12.190;2023-08-17T17:43:24;4.72;;;4.20;;
13319;SDS011;59599;47.608;12.190;2023-08-17T17:45:50;6.95;;;4.43;;
13319;SDS011;59599;47.608;12.190;2023-08-17T17:48:17;4.75;;;4.20;;
13319;SDS011;59599;47.608;12.190;2023-08-17T17:50:43;6.03;;;3.85;;
13319;SDS011;59599;47.608;12.190;2023-08-17T17:53:08;4.53;;;3.55;;
13319;SDS011;59599;47.608;12.190;2023-08-17T17:55:34;5.03;;;3.80;;
13319;SDS011;59599;47.608;12.190;2023-08-17T17:58:00;6.93;;;3.20;;
13319;SDS011;59599;47.608;12.190;2023-08-17T18:00:29;5.28;;;3.47;;
13319;SDS011;59599;47.608;12.190;2023-08-17T18:03:04;6.30;;;3.45;;
13319;SDS011;59599;47.608;12.190;2023-08-17T18:05:35;4.85;;;3.10;;
13319;SDS011;59599;47.608;12.190;2023-08-17T18:08:00;4.10;;;2.90;;
13319;SDS011;59599;47.608;12.190;2023-08-17T18:10:27;3.90;;;2.97;;
13319;SDS011;59599;47.608;12.190;2023-08-17T18:12:53;3.10;;;2.67;;
13319;SDS011;59599;47.608;12.190;2023-08-17T18:15:18;3.42;;;2.40;;
13319;SDS011;59599;47.608;12.190;2023-08-17T18:17:44;2.75;;;2.33;;
13319;SDS011;59599;47.608;12.190;2023-08-17T18:20:10;3.75;;;2.40;;
13319;SDS011;59599;47.608;12.190;2023-08-17T18:22:37;5.97;;;2.42;;
13319;SDS011;59599;47.608;12.190;2023-08-17T18:25:03;2.53;;;1.95;;
13319;SDS011;59599;47.608;12.190;2023-08-17T18:27:30;3.72;;;2.17;;
13319;SDS011;59599;47.608;12.190;2023-08-17T18:29:56;2.78;;;2.30;;
13319;SDS011;59599;47.608;12.190;2023-08-17T18:32:21;3.17;;;2.40;;
13319;SDS011;59599;47.608;12.190;2023-08-17T18:34:47;2.70;;;2.20;;
13319;SDS011;59599;47.608;12.190;2023-08-17T18:37:13;3.17;;;2.45;;